Flight Track Log - Related Links

Times and Time Zones

All times are in EDT time to prevent confusion due to time zone crossing. See the N960DL flight status page for this flight to view local times or setup timezone preferences in your user account.

Time Position Orientation Groundspeed Altitude Reporting Facility
EDT Latitude Longitude Course Direction KTS MPH feet Rate Location/Type
Tue 07:07:59 AM 29.9661 -95.3456 90° East 144 166 25,000  Level Houston Center
Tue 07:09:00 AM 29.9289 -95.3200 149° Southeast 190 219 2,700 -9,541 Descending Houston Center
Tue 07:10:00 AM 29.9834 -94.9212 90° East  Level FlightAware Approximate
Tue 07:10:01 AM 29.9069 -95.2422 108° East 258 297 5,600  Level Houston Center
Tue 07:11:00 AM 29.9834 -94.7838 90° East  Level FlightAware Approximate
Tue 07:11:01 AM 29.8953 -95.1511 98° East 284 327 8,900  Level Houston Center
Tue 07:12:00 AM 29.9833 -94.6464 90° East  Level FlightAware Approximate
Tue 07:12:02 AM 29.9047 -95.0494 84° East 312 359 11,400  Level Houston Center
Tue 07:13:00 AM 29.9834 -94.5090 90° East  Level FlightAware Approximate
Tue 07:13:02 AM 29.9189 -94.9269 82° East 380 437 13,300  Level Houston Center
Tue 07:14:03 AM 29.9358 -94.7947 82° East 411 473 16,200 2,656 Climbing Houston Center
Tue 07:15:04 AM 29.9550 -94.6581 81° East 427 491 18,700 2,380 Climbing Houston Center
Tue 07:16:04 AM 29.9722 -94.5164 82° East 441 507 21,000 2,033 Climbing Houston Center
Tue 07:17:05 AM 29.9889 -94.3647 83° East 457 526 22,800 1,918 Climbing Houston Center
Tue 07:18:06 AM 30.0069 -94.2158 82° East 468 539 24,900 1,091 Climbing Houston Center
Tue 07:19:06 AM 30.0250 -94.0683 82° East 468 539 25,000 50 Climbing Houston Center
Tue 07:20:07 AM 30.0422 -93.9206 82° East 468 539 25,000  Level Houston Center
Tue 07:21:08 AM 30.0644 -93.7442 82° East 468 539 25,000  Level Houston Center
Tue 07:22:08 AM 30.0828 -93.5992 82° East 465 535 25,000  Level Houston Center
Tue 07:23:09 AM 30.1003 -93.4531 82° East 467 537 25,000  Level Houston Center
Tue 07:24:10 AM 30.1167 -93.3069 83° East 466 536 25,000  Level Houston Center
Tue 07:25:11 AM 30.1347 -93.1597 82° East 466 536 25,000  Level Houston Center
Tue 07:26:12 AM 30.1589 -93.0142 79° East 467 537 25,000  Level Houston Center
Tue 07:27:12 AM 30.1875 -92.8711 77° East 461 531 25,000  Level Houston Center
Tue 07:28:13 AM 30.2161 -92.7258 77° East 465 535 25,000  Level Houston Center
Tue 07:29:14 AM 30.2453 -92.5797 77° East 468 539 25,000  Level Houston Center
Tue 07:30:15 AM 30.2736 -92.4333 77° East 469 540 25,000  Level Houston Center
Tue 07:31:16 AM 30.3047 -92.2672 78° East 471 542 25,000  Level Houston Center
Tue 07:32:17 AM 30.3308 -92.1211 78° East 468 539 25,000  Level Houston Center
Tue 07:33:18 AM 30.3592 -91.9756 77° East 467 537 25,000  Level Houston Center
Tue 07:34:19 AM 30.3878 -91.8275 77° East 470 541 25,000  Level Houston Center
Tue 07:35:20 AM 30.4183 -91.6706 77° East 467 537 25,000  Level Houston Center
Tue 07:36:21 AM 30.4453 -91.5244 78° East 465 535 25,000  Level Houston Center
Tue 07:37:22 AM 30.4725 -91.3772 78° East 467 537 25,000  Level Houston Center
Tue 07:38:23 AM 30.5014 -91.2297 77° East 469 540 25,000  Level Houston Center
Tue 07:39:24 AM 30.5356 -91.0842 75° East 468 539 25,000  Level Houston Center
Tue 07:40:25 AM 30.5678 -90.9375 76° East 469 540 25,000  Level Houston Center
Tue 07:41:26 AM 30.6008 -90.7911 75° East 468 539 25,000  Level Houston Center
Tue 07:42:27 AM 30.6339 -90.6458 75° East 467 537 25,000  Level Houston Center
Tue 07:43:28 AM 30.6661 -90.4992 76° East 467 537 25,000  Level Houston Center
Tue 07:44:29 AM 30.7053 -90.3233 75° East 468 539 25,000  Level Houston Center
Tue 07:45:30 AM 30.7375 -90.1761 76° East 468 539 25,000  Level Houston Center
Tue 07:46:32 AM 30.7686 -90.0289 76° East 467 537 25,000  Level Houston Center
Tue 07:47:32 AM 30.8003 -89.8819 76° East 467 537 25,000  Level Houston Center
Tue 07:48:33 AM 30.8325 -89.7342 76° East 469 540 25,000  Level Houston Center
Tue 07:49:34 AM 30.8647 -89.5869 76° East 468 539 25,000  Level Houston Center
Tue 07:50:35 AM 30.8961 -89.4406 76° East 466 536 25,000  Level Houston Center
Tue 07:51:37 AM 30.9272 -89.2925 76° East 468 539 25,000  Level Houston Center
Tue 07:52:38 AM 30.9592 -89.1439 76° East 472 543 25,000  Level Houston Center
Tue 07:53:39 AM 30.9906 -88.9969 76° East 467 537 25,000  Level Houston Center
Tue 07:54:40 AM 31.0250 -88.8356 76° East 466 536 25,000  Level Houston Center
Tue 07:55:42 AM 31.0567 -88.6878 76° East 469 540 25,000  Level Houston Center
Tue 07:56:43 AM 31.0850 -88.5558 76° East 467 537 25,000  Level Houston Center
Tue 07:57:44 AM 31.1369 -88.4189 66° East 466 536 25,000  Level Houston Center
Tue 07:58:46 AM 31.2300 -88.2772 52° Northeast 460 529 25,000  Level Houston Center
Tue 07:59:41 AM 31.2844 -88.1911 53° Northeast 447 514 25,000  Level Atlanta Center
Tue 08:00:41 AM 31.3661 -88.0611 54° Northeast 447 514 25,000  Level Atlanta Center
Tue 08:01:41 AM 31.4408 -87.9403 54° Northeast 452 520 25,000  Level Atlanta Center
Tue 08:02:41 AM 31.5156 -87.8192 54° Northeast 452 520 25,000  Level Atlanta Center
Tue 08:03:41 AM 31.5881 -87.7028 54° Northeast 452 520 25,000  Level Atlanta Center
Tue 08:04:41 AM 31.6603 -87.5814 55° Northeast 452 520 25,000  Level Atlanta Center
Tue 08:05:41 AM 31.7325 -87.4622 55° Northeast 452 520 25,000  Level Atlanta Center
Tue 08:06:41 AM 31.8047 -87.3403 55° Northeast 452 520 25,000  Level Atlanta Center
Tue 08:07:41 AM 31.8836 -87.2039 56° Northeast 452 520 25,000  Level Atlanta Center
Tue 08:08:41 AM 31.9533 -87.0864 55° Northeast 452 520 25,000  Level Atlanta Center
Tue 08:09:41 AM 32.0272 -86.9664 54° Northeast 447 514 25,000  Level Atlanta Center
Tue 08:10:41 AM 32.0989 -86.8461 55° Northeast 447 514 25,000  Level Atlanta Center
Tue 08:11:41 AM 32.1683 -86.7256 56° Northeast 447 514 25,000  Level Atlanta Center
Tue 08:12:41 AM 32.2392 -86.6244 50° Northeast 447 514 25,000  Level Atlanta Center
Tue 08:13:41 AM 32.3086 -86.5014 56° Northeast 447 514 25,000  Level Atlanta Center
Tue 08:14:41 AM 32.3758 -86.3631 60° Northeast 456 525 25,000  Level Atlanta Center
Tue 08:15:41 AM 32.4492 -86.2417 54° Northeast 451 519 25,000  Level Atlanta Center
Tue 08:16:41 AM 32.5264 -86.1206 53° Northeast 451 519 25,000  Level Atlanta Center
Tue 08:17:41 AM 32.5908 -86.0136 54° Northeast 451 519 25,000  Level Atlanta Center
Tue 08:18:41 AM 32.6636 -85.8919 55° Northeast 451 519 25,000  Level Atlanta Center
Tue 08:19:41 AM 32.7364 -85.7700 55° Northeast 446 513 25,000 -200 Level Atlanta Center
Tue 08:20:41 AM 32.8111 -85.6503 53° Northeast 446 513 24,600 -1,300 Descending Atlanta Center
Tue 08:21:41 AM 32.8814 -85.5328 55° Northeast 441 507 22,400 -2,500 Descending Atlanta Center
Tue 08:22:41 AM 32.9517 -85.4203 53° Northeast 441 507 19,600 -2,550 Descending Atlanta Center
Tue 08:23:41 AM 33.0175 -85.3097 55° Northeast 422 486 17,300 -2,550 Descending Atlanta Center
Tue 08:24:41 AM 33.0811 -85.2064 54° Northeast 394 453 14,500 -2,450 Descending Atlanta Center
Tue 08:25:41 AM 33.1406 -85.1031 55° Northeast 383 441 12,400 -1,250 Descending Atlanta Center
Tue 08:26:41 AM 33.1956 -85.0169 53° Northeast 340 391 12,000 -950 Descending Atlanta Center
Tue 08:27:41 AM 33.2503 -84.9456 47° Northeast 310 357 10,500 -1,600 Descending Atlanta Center
Tue 08:28:41 AM 33.3031 -84.8739 49° Northeast 292 336 8,800 -1,400 Descending Atlanta Center
Tue 08:29:41 AM 33.3597 -84.8047 46° Northeast 281 323 7,700 -1,108 Descending Atlanta Center
Tue 08:30:51 AM 33.4333 -84.7833 14° North 228 262 6,400 -1,016 Descending Atlanta TRACON
Tue 08:31:45 AM 33.4833 -84.7667 16° North 218 251 5,600 -947 Descending Atlanta TRACON
Tue 08:32:45 AM 33.5500 -84.7500 12° North 202 232 4,600 -850 Descending Atlanta TRACON
Tue 08:33:45 AM 33.5667 -84.7000 68° East 196 226 3,900 -632 Descending Atlanta TRACON
Tue 08:34:39 AM 33.6000 -84.6500 51° Northeast 189 217 3,400 -421 Descending Atlanta TRACON
Tue 08:35:39 AM 33.6167 -84.6000 68° East 165 190 3,100 -300 Descending Atlanta TRACON

Login

Don't have an account? Register now (free) for customized features, flight alerts, and more!